sensor_id;sensor_type;location;lat;lon;timestamp;pressure;altitude;pressure_sealevel;temperature;humidity
15260;BME280;34462;51.368;12.364;2022-11-18T00:01:27;18834.38;;;-141.84;85.73
15260;BME280;34462;51.368;12.364;2022-11-18T00:03:56;18866.88;;;-141.84;85.73
15260;BME280;34462;51.368;12.364;2022-11-18T00:06:27;18868.91;;;-141.84;85.54
15260;BME280;34462;51.368;12.364;2022-11-18T00:08:58;18838.44;;;-141.84;84.65
15260;BME280;34462;51.368;12.364;2022-11-18T00:11:27;18858.75;;;-141.84;84.78
15260;BME280;34462;51.368;12.364;2022-11-18T00:14:16;18868.91;;;-141.84;84.94
15260;BME280;34462;51.368;12.364;2022-11-18T00:16:51;18893.28;;;-141.84;84.21
15260;BME280;34462;51.368;12.364;2022-11-18T00:19:23;18866.88;;;-141.84;84.34
15260;BME280;34462;51.368;12.364;2022-11-18T00:21:52;18877.03;;;-141.84;85.01
15260;BME280;34462;51.368;12.364;2022-11-18T00:24:23;18858.75;;;-141.84;85.16
15260;BME280;34462;51.368;12.364;2022-11-18T00:26:52;18891.25;;;-141.84;84.97
15260;BME280;34462;51.368;12.364;2022-11-18T00:29:21;18893.28;;;-141.84;84.75
15260;BME280;34462;51.368;12.364;2022-11-18T00:31:50;18866.88;;;-141.84;85.02
15260;BME280;34462;51.368;12.364;2022-11-18T00:34:18;18881.09;;;-141.84;85.26
15260;BME280;34462;51.368;12.364;2022-11-18T00:36:47;18870.94;;;-141.84;85.52
15260;BME280;34462;51.368;12.364;2022-11-18T00:39:17;18879.06;;;-141.84;85.77
15260;BME280;34462;51.368;12.364;2022-11-18T00:41:48;18856.72;;;-141.84;86.25
15260;BME280;34462;51.368;12.364;2022-11-18T00:44:33;18879.06;;;-141.84;85.24
15260;BME280;34462;51.368;12.364;2022-11-18T00:47:03;18868.91;;;-141.84;84.93
15260;BME280;34462;51.368;12.364;2022-11-18T00:49:31;18856.72;;;-141.84;84.65
15260;BME280;34462;51.368;12.364;2022-11-18T00:51:59;18877.03;;;-141.84;84.18
15260;BME280;34462;51.368;12.364;2022-11-18T00:54:28;18895.31;;;-141.84;84.28
15260;BME280;34462;51.368;12.364;2022-11-18T00:56:57;18903.44;;;-141.84;84.85
15260;BME280;34462;51.368;12.364;2022-11-18T00:59:25;18879.06;;;-141.84;85.21
15260;BME280;34462;51.368;12.364;2022-11-18T01:01:53;18877.03;;;-141.84;85.52
15260;BME280;34462;51.368;12.364;2022-11-18T01:04:22;18852.66;;;-141.84;85.08
15260;BME280;34462;51.368;12.364;2022-11-18T01:06:50;18870.94;;;-141.84;84.49
15260;BME280;34462;51.368;12.364;2022-11-18T01:09:18;18879.06;;;-141.84;84.39
15260;BME280;34462;51.368;12.364;2022-11-18T01:11:47;18862.81;;;-141.84;84.39
15260;BME280;34462;51.368;12.364;2022-11-18T01:14:34;18842.50;;;-141.84;84.76
15260;BME280;34462;51.368;12.364;2022-11-18T01:17:02;18866.88;;;-141.84;84.85
15260;BME280;34462;51.368;12.364;2022-11-18T01:19:30;18850.63;;;-141.84;84.07
15260;BME280;34462;51.368;12.364;2022-11-18T01:21:58;18868.91;;;-141.84;83.91
15260;BME280;34462;51.368;12.364;2022-11-18T01:24:29;18891.25;;;-141.84;83.34
15260;BME280;34462;51.368;12.364;2022-11-18T01:27:00;18872.97;;;-141.84;83.70
15260;BME280;34462;51.368;12.364;2022-11-18T01:29:28;18883.13;;;-141.84;83.99
15260;BME280;34462;51.368;12.364;2022-11-18T01:31:58;18868.91;;;-141.84;84.71
15260;BME280;34462;51.368;12.364;2022-11-18T01:34:46;18875.00;;;-141.84;83.91
15260;BME280;34462;51.368;12.364;2022-11-18T01:37:14;18848.59;;;-141.84;84.28
15260;BME280;34462;51.368;12.364;2022-11-18T01:39:42;18872.97;;;-141.84;83.59
15260;BME280;34462;51.368;12.364;2022-11-18T01:42:14;18870.94;;;-141.84;84.14
15260;BME280;34462;51.368;12.364;2022-11-18T01:45:14;18858.75;;;-141.84;83.60
15260;BME280;34462;51.368;12.364;2022-11-18T01:47:54;18864.84;;;-141.84;83.98
15260;BME280;34462;51.368;12.364;2022-11-18T01:50:25;18842.50;;;-141.84;84.46
15260;BME280;34462;51.368;12.364;2022-11-18T01:53:09;18875.00;;;-141.84;84.90
15260;BME280;34462;51.368;12.364;2022-11-18T01:55:43;18897.34;;;-141.84;84.40
15260;BME280;34462;51.368;12.364;2022-11-18T01:58:21;18850.63;;;-141.84;84.19
15260;BME280;34462;51.368;12.364;2022-11-18T02:00:50;18881.09;;;-141.84;84.49
15260;BME280;34462;51.368;12.364;2022-11-18T02:03:21;18879.06;;;-141.84;84.68
15260;BME280;34462;51.368;12.364;2022-11-18T02:05:52;18826.25;;;-141.84;85.15
15260;BME280;34462;51.368;12.364;2022-11-18T02:08:22;18862.81;;;-141.84;84.49
15260;BME280;34462;51.368;12.364;2022-11-18T02:10:50;18866.88;;;-141.84;83.31
15260;BME280;34462;51.368;12.364;2022-11-18T02:13:19;18909.53;;;-141.84;83.15
15260;BME280;34462;51.368;12.364;2022-11-18T02:15:55;18850.63;;;-141.84;83.34
15260;BME280;34462;51.368;12.364;2022-11-18T02:18:41;18850.63;;;-141.84;83.60
15260;BME280;34462;51.368;12.364;2022-11-18T02:21:27;18858.75;;;-141.84;84.02
15260;BME280;34462;51.368;12.364;2022-11-18T02:24:39;18866.88;;;-141.84;84.05
15260;BME280;34462;51.368;12.364;2022-11-18T02:27:55;18883.13;;;-141.84;84.55
15260;BME280;34462;51.368;12.364;2022-11-18T02:30:31;18846.56;;;-141.84;84.49
15260;BME280;34462;51.368;12.364;2022-11-18T02:33:07;18848.59;;;-141.84;84.82
15260;BME280;34462;51.368;12.364;2022-11-18T02:35:42;18852.66;;;-141.84;85.11
15260;BME280;34462;51.368;12.364;2022-11-18T02:38:14;18854.69;;;-141.84;84.83
15260;BME280;34462;51.368;12.364;2022-11-18T02:40:47;18854.69;;;-141.84;83.68
15260;BME280;34462;51.368;12.364;2022-11-18T02:43:25;18848.59;;;-141.84;84.09
15260;BME280;34462;51.368;12.364;2022-11-18T02:46:01;18883.13;;;-141.84;83.12
15260;BME280;34462;51.368;12.364;2022-11-18T02:48:34;18852.66;;;-141.84;83.69
15260;BME280;34462;51.368;12.364;2022-11-18T02:51:07;18879.06;;;-141.84;83.59
15260;BME280;34462;51.368;12.364;2022-11-18T02:53:39;18870.94;;;-141.84;83.36
15260;BME280;34462;51.368;12.364;2022-11-18T02:56:09;18848.59;;;-141.84;83.96
15260;BME280;34462;51.368;12.364;2022-11-18T02:58:38;18832.34;;;-141.84;84.23
15260;BME280;34462;51.368;12.364;2022-11-18T03:01:17;18862.81;;;-141.84;83.85
15260;BME280;34462;51.368;12.364;2022-11-18T03:03:46;18840.47;;;-141.84;84.06
15260;BME280;34462;51.368;12.364;2022-11-18T03:06:27;18856.72;;;-141.84;84.40
15260;BME280;34462;51.368;12.364;2022-11-18T03:09:08;18866.88;;;-141.84;82.89
15260;BME280;34462;51.368;12.364;2022-11-18T03:11:47;18848.59;;;-141.84;83.16
15260;BME280;34462;51.368;12.364;2022-11-18T03:14:27;18854.69;;;-141.84;83.67
15260;BME280;34462;51.368;12.364;2022-11-18T03:17:03;18826.25;;;-141.84;83.72
15260;BME280;34462;51.368;12.364;2022-11-18T03:19:55;18870.94;;;-141.84;83.20
15260;BME280;34462;51.368;12.364;2022-11-18T03:22:31;18862.81;;;-141.84;83.07
15260;BME280;34462;51.368;12.364;2022-11-18T03:25:06;18879.06;;;-141.84;83.41
15260;BME280;34462;51.368;12.364;2022-11-18T03:27:43;18858.75;;;-141.84;82.79
15260;BME280;34462;51.368;12.364;2022-11-18T03:30:18;18901.41;;;-141.84;82.55
15260;BME280;34462;51.368;12.364;2022-11-18T03:32:55;18866.88;;;-141.84;82.53
15260;BME280;34462;51.368;12.364;2022-11-18T03:35:28;18877.03;;;-141.84;82.53
15260;BME280;34462;51.368;12.364;2022-11-18T03:38:04;18830.31;;;-141.84;82.68
15260;BME280;34462;51.368;12.364;2022-11-18T03:40:38;18862.81;;;-141.84;82.76
15260;BME280;34462;51.368;12.364;2022-11-18T03:43:12;18856.72;;;-141.84;83.28
15260;BME280;34462;51.368;12.364;2022-11-18T03:45:46;18883.13;;;-141.84;82.92
15260;BME280;34462;51.368;12.364;2022-11-18T03:48:22;18826.25;;;-141.84;82.56
15260;BME280;34462;51.368;12.364;2022-11-18T03:50:57;18866.88;;;-141.84;83.08
15260;BME280;34462;51.368;12.364;2022-11-18T03:53:32;18842.50;;;-141.84;83.73
15260;BME280;34462;51.368;12.364;2022-11-18T03:56:06;18864.84;;;-141.84;83.72
15260;BME280;34462;51.368;12.364;2022-11-18T03:58:50;18842.50;;;-141.84;83.23
15260;BME280;34462;51.368;12.364;2022-11-18T04:01:27;18850.63;;;-141.84;82.67
15260;BME280;34462;51.368;12.364;2022-11-18T04:04:00;18866.88;;;-141.84;82.41
15260;BME280;34462;51.368;12.364;2022-11-18T04:06:36;18850.63;;;-141.84;82.33
15260;BME280;34462;51.368;12.364;2022-11-18T04:09:11;18850.63;;;-141.84;82.19
15260;BME280;34462;51.368;12.364;2022-11-18T04:11:46;18838.44;;;-141.84;82.19
15260;BME280;34462;51.368;12.364;2022-11-18T04:14:33;18883.13;;;-141.84;82.83
15260;BME280;34462;51.368;12.364;2022-11-18T04:17:08;18872.97;;;-141.84;83.27
15260;BME280;34462;51.368;12.364;2022-11-18T04:19:39;18870.94;;;-141.84;83.27
15260;BME280;34462;51.368;12.364;2022-11-18T04:22:08;18814.03;;;-141.84;83.36
15260;BME280;34462;51.368;12.364;2022-11-18T04:24:37;18854.69;;;-141.84;81.95
15260;BME280;34462;51.368;12.364;2022-11-18T04:27:06;18875.00;;;-141.84;82.27
15260;BME280;34462;51.368;12.364;2022-11-18T04:29:34;18854.69;;;-141.84;82.52
15260;BME280;34462;51.368;12.364;2022-11-18T04:32:04;18818.09;;;-141.84;83.10
15260;BME280;34462;51.368;12.364;2022-11-18T04:34:32;18844.53;;;-141.84;83.05
15260;BME280;34462;51.368;12.364;2022-11-18T04:37:02;18836.41;;;-141.84;82.49
15260;BME280;34462;51.368;12.364;2022-11-18T04:39:30;18842.50;;;-141.84;82.56
15260;BME280;34462;51.368;12.364;2022-11-18T04:41:58;18852.66;;;-141.84;82.21
15260;BME280;34462;51.368;12.364;2022-11-18T04:44:29;18830.31;;;-141.84;82.88
15260;BME280;34462;51.368;12.364;2022-11-18T04:47:00;18836.41;;;-141.84;82.64
15260;BME280;34462;51.368;12.364;2022-11-18T04:49:29;18830.31;;;-141.84;82.79
15260;BME280;34462;51.368;12.364;2022-11-18T04:51:58;18850.63;;;-141.84;83.15
15260;BME280;34462;51.368;12.364;2022-11-18T04:54:27;18826.25;;;-141.84;82.82
15260;BME280;34462;51.368;12.364;2022-11-18T04:56:56;18842.50;;;-141.84;82.42
15260;BME280;34462;51.368;12.364;2022-11-18T04:59:27;18836.41;;;-141.84;82.41
15260;BME280;34462;51.368;12.364;2022-11-18T05:01:56;18848.59;;;-141.84;82.48
15260;BME280;34462;51.368;12.364;2022-11-18T05:04:28;18840.47;;;-141.84;82.77
15260;BME280;34462;51.368;12.364;2022-11-18T05:06:59;18791.69;;;-141.84;83.60
15260;BME280;34462;51.368;12.364;2022-11-18T05:09:29;18828.28;;;-141.84;82.39
15260;BME280;34462;51.368;12.364;2022-11-18T05:11:58;18840.47;;;-141.84;82.35
15260;BME280;34462;51.368;12.364;2022-11-18T05:14:44;18834.38;;;-141.84;81.82
15260;BME280;34462;51.368;12.364;2022-11-18T05:17:17;18860.78;;;-141.84;82.01
15260;BME280;34462;51.368;12.364;2022-11-18T05:19:46;18842.50;;;-141.84;82.72
15260;BME280;34462;51.368;12.364;2022-11-18T05:22:14;18818.09;;;-141.84;82.91
15260;BME280;34462;51.368;12.364;2022-11-18T05:24:44;18830.31;;;-141.84;82.23
15260;BME280;34462;51.368;12.364;2022-11-18T05:27:13;18805.91;;;-141.84;82.28
15260;BME280;34462;51.368;12.364;2022-11-18T05:29:41;18822.19;;;-141.84;82.87
15260;BME280;34462;51.368;12.364;2022-11-18T05:32:09;18793.72;;;-141.84;83.20
15260;BME280;34462;51.368;12.364;2022-11-18T05:34:39;18789.66;;;-141.84;83.08
15260;BME280;34462;51.368;12.364;2022-11-18T05:37:07;18814.03;;;-141.84;83.30
15260;BME280;34462;51.368;12.364;2022-11-18T05:39:36;18830.31;;;-141.84;82.50
15260;BME280;34462;51.368;12.364;2022-11-18T05:42:06;18799.81;;;-141.84;82.88
15260;BME280;34462;51.368;12.364;2022-11-18T05:44:52;18846.56;;;-141.84;82.63
15260;BME280;34462;51.368;12.364;2022-11-18T05:47:24;18807.94;;;-141.84;82.67
15260;BME280;34462;51.368;12.364;2022-11-18T05:49:53;18809.97;;;-141.84;83.17
15260;BME280;34462;51.368;12.364;2022-11-18T05:52:21;18793.72;;;-141.84;83.29
15260;BME280;34462;51.368;12.364;2022-11-18T05:54:50;18803.88;;;-141.84;83.44
15260;BME280;34462;51.368;12.364;2022-11-18T05:57:19;18785.59;;;-141.84;83.44
15260;BME280;34462;51.368;12.364;2022-11-18T05:59:47;18807.94;;;-141.84;83.68
15260;BME280;34462;51.368;12.364;2022-11-18T06:02:20;18814.03;;;-141.84;83.26
15260;BME280;34462;51.368;12.364;2022-11-18T06:04:56;18826.25;;;-141.84;83.28
15260;BME280;34462;51.368;12.364;2022-11-18T06:07:29;18803.88;;;-141.84;83.26
15260;BME280;34462;51.368;12.364;2022-11-18T06:10:00;18822.19;;;-141.84;83.36
15260;BME280;34462;51.368;12.364;2022-11-18T06:12:38;18816.06;;;-141.84;82.88
15260;BME280;34462;51.368;12.364;2022-11-18T06:15:14;18807.94;;;-141.84;82.63
15260;BME280;34462;51.368;12.364;2022-11-18T06:17:48;18809.97;;;-141.84;83.21
15260;BME280;34462;51.368;12.364;2022-11-18T06:20:20;18791.69;;;-141.84;82.97
15260;BME280;34462;51.368;12.364;2022-11-18T06:22:53;18793.72;;;-141.84;83.00
15260;BME280;34462;51.368;12.364;2022-11-18T06:25:23;18805.91;;;-141.84;83.11
15260;BME280;34462;51.368;12.364;2022-11-18T06:27:55;18797.78;;;-141.84;83.16
15260;BME280;34462;51.368;12.364;2022-11-18T06:30:26;18826.25;;;-141.84;83.24
15260;BME280;34462;51.368;12.364;2022-11-18T06:32:54;18836.41;;;-141.84;83.45
15260;BME280;34462;51.368;12.364;2022-11-18T06:35:22;18814.03;;;-141.84;82.65
15260;BME280;34462;51.368;12.364;2022-11-18T06:37:50;18816.06;;;-141.84;82.35
15260;BME280;34462;51.368;12.364;2022-11-18T06:40:18;18805.91;;;-141.84;82.17
15260;BME280;34462;51.368;12.364;2022-11-18T06:42:46;18785.59;;;-141.84;82.23
15260;BME280;34462;51.368;12.364;2022-11-18T06:45:34;18787.63;;;-141.84;82.21
15260;BME280;34462;51.368;12.364;2022-11-18T06:48:05;18803.88;;;-141.84;82.30
15260;BME280;34462;51.368;12.364;2022-11-18T06:50:32;18818.09;;;-141.84;82.20
15260;BME280;34462;51.368;12.364;2022-11-18T06:53:00;18773.41;;;-141.84;82.36
15260;BME280;34462;51.368;12.364;2022-11-18T06:55:28;18789.66;;;-141.84;82.29
15260;BME280;34462;51.368;12.364;2022-11-18T06:57:56;18803.88;;;-141.84;82.25
15260;BME280;34462;51.368;12.364;2022-11-18T07:00:25;18785.59;;;-141.84;82.05
15260;BME280;34462;51.368;12.364;2022-11-18T07:02:54;18824.22;;;-141.84;81.97
15260;BME280;34462;51.368;12.364;2022-11-18T07:05:22;18807.94;;;-141.84;82.23
15260;BME280;34462;51.368;12.364;2022-11-18T07:07:50;18826.25;;;-141.84;82.06
15260;BME280;34462;51.368;12.364;2022-11-18T07:10:19;18761.22;;;-141.84;81.95
15260;BME280;34462;51.368;12.364;2022-11-18T07:12:47;18787.63;;;-141.84;82.23
15260;BME280;34462;51.368;12.364;2022-11-18T07:15:15;18814.03;;;-141.84;81.95
15260;BME280;34462;51.368;12.364;2022-11-18T07:17:43;18793.72;;;-141.84;82.47
15260;BME280;34462;51.368;12.364;2022-11-18T07:20:13;18791.69;;;-141.84;82.07
15260;BME280;34462;51.368;12.364;2022-11-18T07:22:41;18791.69;;;-141.84;82.07
15260;BME280;34462;51.368;12.364;2022-11-18T07:25:09;18828.28;;;-141.84;81.52
15260;BME280;34462;51.368;12.364;2022-11-18T07:27:37;18777.47;;;-141.84;81.82
15260;BME280;34462;51.368;12.364;2022-11-18T07:30:07;18830.31;;;-141.84;82.38
15260;BME280;34462;51.368;12.364;2022-11-18T07:32:35;18789.66;;;-141.84;81.93
15260;BME280;34462;51.368;12.364;2022-11-18T07:35:04;18809.97;;;-141.84;82.05
15260;BME280;34462;51.368;12.364;2022-11-18T07:37:34;18765.28;;;-141.84;82.72
15260;BME280;34462;51.368;12.364;2022-11-18T07:40:03;18805.91;;;-141.84;82.63
15260;BME280;34462;51.368;12.364;2022-11-18T07:42:31;18797.78;;;-141.84;82.60
15260;BME280;34462;51.368;12.364;2022-11-18T07:45:10;18773.41;;;-141.84;82.97
15260;BME280;34462;51.368;12.364;2022-11-18T07:47:38;18793.72;;;-141.84;82.93
15260;BME280;34462;51.368;12.364;2022-11-18T07:50:07;18755.13;;;-141.84;83.71
15260;BME280;34462;51.368;12.364;2022-11-18T07:52:37;18779.50;;;-141.84;83.84
15260;BME280;34462;51.368;12.364;2022-11-18T07:55:06;18783.56;;;-141.84;84.21
15260;BME280;34462;51.368;12.364;2022-11-18T07:57:35;18805.91;;;-141.84;84.27
15260;BME280;34462;51.368;12.364;2022-11-18T08:00:04;18797.78;;;-141.84;83.98
15260;BME280;34462;51.368;12.364;2022-11-18T08:02:32;18753.09;;;-141.84;83.59
15260;BME280;34462;51.368;12.364;2022-11-18T08:05:01;18767.31;;;-141.84;84.23
15260;BME280;34462;51.368;12.364;2022-11-18T08:07:29;18777.47;;;-141.84;83.77
15260;BME280;34462;51.368;12.364;2022-11-18T08:09:59;18777.47;;;-141.84;83.76
15260;BME280;34462;51.368;12.364;2022-11-18T08:12:29;18751.06;;;-141.84;83.70
15260;BME280;34462;51.368;12.364;2022-11-18T08:14:57;18749.03;;;-141.84;82.98
15260;BME280;34462;51.368;12.364;2022-11-18T08:17:26;18763.25;;;-141.84;83.11
15260;BME280;34462;51.368;12.364;2022-11-18T08:19:54;18753.09;;;-141.84;83.54
15260;BME280;34462;51.368;12.364;2022-11-18T08:22:22;18738.88;;;-141.84;83.55
15260;BME280;34462;51.368;12.364;2022-11-18T08:24:50;18736.84;;;-141.84;83.15
15260;BME280;34462;51.368;12.364;2022-11-18T08:27:20;18767.31;;;-141.84;83.01
15260;BME280;34462;51.368;12.364;2022-11-18T08:29:49;18751.06;;;-141.84;82.47
15260;BME280;34462;51.368;12.364;2022-11-18T08:32:18;18747.00;;;-141.84;82.68
15260;BME280;34462;51.368;12.364;2022-11-18T08:34:48;18755.13;;;-141.84;83.47
15260;BME280;34462;51.368;12.364;2022-11-18T08:37:18;18738.88;;;-141.84;83.06
15260;BME280;34462;51.368;12.364;2022-11-18T08:39:47;18730.75;;;-141.84;82.75
15260;BME280;34462;51.368;12.364;2022-11-18T08:42:16;18730.75;;;-141.84;82.63
15260;BME280;34462;51.368;12.364;2022-11-18T08:44:53;18740.91;;;-141.84;82.58
15260;BME280;34462;51.368;12.364;2022-11-18T08:47:21;18765.28;;;-141.84;82.62
15260;BME280;34462;51.368;12.364;2022-11-18T08:49:49;18773.41;;;-141.84;82.88
15260;BME280;34462;51.368;12.364;2022-11-18T08:52:17;18773.41;;;-141.84;82.65
15260;BME280;34462;51.368;12.364;2022-11-18T08:54:45;18765.28;;;-141.84;82.28
15260;BME280;34462;51.368;12.364;2022-11-18T08:57:13;18749.03;;;-141.84;82.06
15260;BME280;34462;51.368;12.364;2022-11-18T08:59:41;18726.69;;;-141.84;81.83
15260;BME280;34462;51.368;12.364;2022-11-18T09:02:15;18738.88;;;-141.84;81.82
15260;BME280;34462;51.368;12.364;2022-11-18T09:04:45;18757.16;;;-141.84;82.29
15260;BME280;34462;51.368;12.364;2022-11-18T09:07:13;18769.34;;;-141.84;82.19
15260;BME280;34462;51.368;12.364;2022-11-18T09:09:41;18751.06;;;-141.84;81.80
15260;BME280;34462;51.368;12.364;2022-11-18T09:12:10;18783.56;;;-141.84;81.91
15260;BME280;34462;51.368;12.364;2022-11-18T09:14:41;18742.94;;;-141.84;81.87
15260;BME280;34462;51.368;12.364;2022-11-18T09:17:30;18738.88;;;-141.84;81.67
15260;BME280;34462;51.368;12.364;2022-11-18T09:19:58;18738.88;;;-141.84;81.41
15260;BME280;34462;51.368;12.364;2022-11-18T09:22:26;18744.97;;;-141.84;81.75
15260;BME280;34462;51.368;12.364;2022-11-18T09:24:54;18736.84;;;-141.84;81.97
15260;BME280;34462;51.368;12.364;2022-11-18T09:27:22;18710.44;;;-141.84;81.97
15260;BME280;34462;51.368;12.364;2022-11-18T09:29:51;18740.91;;;-141.84;81.97
15260;BME280;34462;51.368;12.364;2022-11-18T09:32:19;18757.16;;;-141.84;81.55
15260;BME280;34462;51.368;12.364;2022-11-18T09:34:48;18749.03;;;-141.84;81.81
15260;BME280;34462;51.368;12.364;2022-11-18T09:37:16;18692.13;;;-141.84;81.52
15260;BME280;34462;51.368;12.364;2022-11-18T09:39:44;18728.72;;;-141.84;81.15
15260;BME280;34462;51.368;12.364;2022-11-18T09:42:32;18740.91;;;-141.84;81.61
15260;BME280;34462;51.368;12.364;2022-11-18T09:45:14;18736.84;;;-141.84;81.35
15260;BME280;34462;51.368;12.364;2022-11-18T09:47:50;18714.50;;;-141.84;81.36
15260;BME280;34462;51.368;12.364;2022-11-18T09:50:21;18769.34;;;-141.84;80.94
15260;BME280;34462;51.368;12.364;2022-11-18T09:53:18;18757.16;;;-141.84;80.53
15260;BME280;34462;51.368;12.364;2022-11-18T09:55:48;18761.22;;;-141.84;80.21
15260;BME280;34462;51.368;12.364;2022-11-18T09:58:21;18747.00;;;-141.84;80.39
15260;BME280;34462;51.368;12.364;2022-11-18T10:00:52;18763.25;;;-141.84;80.36
15260;BME280;34462;51.368;12.364;2022-11-18T10:03:26;18777.47;;;-141.84;79.66
15260;BME280;34462;51.368;12.364;2022-11-18T10:06:03;18761.22;;;-141.84;79.33
15260;BME280;34462;51.368;12.364;2022-11-18T10:08:40;18749.03;;;-141.84;79.42
15260;BME280;34462;51.368;12.364;2022-11-18T10:11:15;18775.44;;;-141.84;78.77
15260;BME280;34462;51.368;12.364;2022-11-18T10:14:00;18777.47;;;-141.84;79.13
15260;BME280;34462;51.368;12.364;2022-11-18T10:16:47;18761.22;;;-141.84;78.79
15260;BME280;34462;51.368;12.364;2022-11-18T10:19:31;18769.34;;;-141.84;79.54
15260;BME280;34462;51.368;12.364;2022-11-18T10:22:19;18726.69;;;-141.84;78.90
15260;BME280;34462;51.368;12.364;2022-11-18T10:24:52;18720.59;;;-141.84;78.20
15260;BME280;34462;51.368;12.364;2022-11-18T10:27:32;18761.22;;;-141.84;78.42
15260;BME280;34462;51.368;12.364;2022-11-18T10:30:01;18753.09;;;-141.84;77.90
15260;BME280;34462;51.368;12.364;2022-11-18T10:32:55;18793.72;;;-141.84;77.71
15260;BME280;34462;51.368;12.364;2022-11-18T10:35:28;18761.22;;;-141.84;77.29
15260;BME280;34462;51.368;12.364;2022-11-18T10:38:05;18740.91;;;-141.84;77.07
15260;BME280;34462;51.368;12.364;2022-11-18T10:40:39;18738.88;;;-141.84;77.50
15260;BME280;34462;51.368;12.364;2022-11-18T10:43:09;18799.81;;;-141.84;76.79
15260;BME280;34462;51.368;12.364;2022-11-18T10:45:39;18793.72;;;-141.84;76.21
15260;BME280;34462;51.368;12.364;2022-11-18T10:48:09;18765.28;;;-141.84;76.09
15260;BME280;34462;51.368;12.364;2022-11-18T10:50:46;18763.25;;;-141.84;75.90
15260;BME280;34462;51.368;12.364;2022-11-18T10:53:32;18787.63;;;-141.84;76.55
15260;BME280;34462;51.368;12.364;2022-11-18T10:56:02;18757.16;;;-141.84;76.86
15260;BME280;34462;51.368;12.364;2022-11-18T10:58:34;18767.31;;;-141.84;75.69
15260;BME280;34462;51.368;12.364;2022-11-18T11:01:07;18747.00;;;-141.84;76.16
15260;BME280;34462;51.368;12.364;2022-11-18T11:03:42;18755.13;;;-141.84;76.24
15260;BME280;34462;51.368;12.364;2022-11-18T11:06:30;18785.59;;;-141.84;76.77
15260;BME280;34462;51.368;12.364;2022-11-18T11:09:05;18740.91;;;-141.84;77.56
15260;BME280;34462;51.368;12.364;2022-11-18T11:11:36;18769.34;;;-141.84;77.95
15260;BME280;34462;51.368;12.364;2022-11-18T11:14:21;18761.22;;;-141.84;77.13
15260;BME280;34462;51.368;12.364;2022-11-18T11:16:58;18769.34;;;-141.84;76.92
15260;BME280;34462;51.368;12.364;2022-11-18T11:19:37;18724.66;;;-141.84;77.84
15260;BME280;34462;51.368;12.364;2022-11-18T11:22:10;18728.72;;;-141.84;78.29
15260;BME280;34462;51.368;12.364;2022-11-18T11:24:40;18781.53;;;-141.84;78.15
15260;BME280;34462;51.368;12.364;2022-11-18T11:27:22;18734.81;;;-141.84;78.87
15260;BME280;34462;51.368;12.364;2022-11-18T11:30:18;18761.22;;;-141.84;79.11
15260;BME280;34462;51.368;12.364;2022-11-18T11:33:20;18761.22;;;-141.84;78.78
15260;BME280;34462;51.368;12.364;2022-11-18T11:36:11;18744.97;;;-141.84;78.58
15260;BME280;34462;51.368;12.364;2022-11-18T11:38:53;18747.00;;;-141.84;78.09
15260;BME280;34462;51.368;12.364;2022-11-18T11:41:52;18740.91;;;-141.84;78.43
15260;BME280;34462;51.368;12.364;2022-11-18T11:44:44;18767.31;;;-141.84;78.54
15260;BME280;34462;51.368;12.364;2022-11-18T11:47:27;18747.00;;;-141.84;78.25
15260;BME280;34462;51.368;12.364;2022-11-18T11:50:21;18734.81;;;-141.84;78.19
15260;BME280;34462;51.368;12.364;2022-11-18T11:53:14;18753.09;;;-141.84;78.68
15260;BME280;34462;51.368;12.364;2022-11-18T11:56:00;18714.50;;;-141.84;78.66
15260;BME280;34462;51.368;12.364;2022-11-18T11:59:03;18744.97;;;-141.84;78.50
15260;BME280;34462;51.368;12.364;2022-11-18T12:01:45;18761.22;;;-141.84;78.96
15260;BME280;34462;51.368;12.364;2022-11-18T12:04:36;18775.44;;;-141.84;78.86
15260;BME280;34462;51.368;12.364;2022-11-18T12:07:15;18714.50;;;-141.84;78.97
15260;BME280;34462;51.368;12.364;2022-11-18T12:10:24;18722.63;;;-141.84;79.26
15260;BME280;34462;51.368;12.364;2022-11-18T12:13:11;18710.44;;;-141.84;79.44
15260;BME280;34462;51.368;12.364;2022-11-18T12:16:00;18708.41;;;-141.84;79.17
15260;BME280;34462;51.368;12.364;2022-11-18T12:18:40;18728.72;;;-141.84;78.45
15260;BME280;34462;51.368;12.364;2022-11-18T12:21:51;18722.63;;;-141.84;78.39
15260;BME280;34462;51.368;12.364;2022-11-18T12:24:32;18769.34;;;-141.84;78.05
15260;BME280;34462;51.368;12.364;2022-11-18T12:27:09;18730.75;;;-141.84;78.03
15260;BME280;34462;51.368;12.364;2022-11-18T12:29:52;18765.28;;;-141.84;78.01
15260;BME280;34462;51.368;12.364;2022-11-18T12:32:29;18744.97;;;-141.84;78.86
15260;BME280;34462;51.368;12.364;2022-11-18T12:35:04;18744.97;;;-141.84;77.62
15260;BME280;34462;51.368;12.364;2022-11-18T12:38:02;18751.06;;;-141.84;77.25
15260;BME280;34462;51.368;12.364;2022-11-18T12:40:42;18720.59;;;-141.84;77.72
15260;BME280;34462;51.368;12.364;2022-11-18T12:44:04;18755.13;;;-141.84;77.96
15260;BME280;34462;51.368;12.364;2022-11-18T12:46:54;18755.13;;;-141.84;77.21
15260;BME280;34462;51.368;12.364;2022-11-18T12:50:10;18749.03;;;-141.84;76.02
15260;BME280;34462;51.368;12.364;2022-11-18T12:52:53;18724.66;;;-141.84;76.58
15260;BME280;34462;51.368;12.364;2022-11-18T12:55:32;18763.25;;;-141.84;77.05
15260;BME280;34462;51.368;12.364;2022-11-18T12:58:00;18751.06;;;-141.84;76.73
15260;BME280;34462;51.368;12.364;2022-11-18T13:00:32;18740.91;;;-141.84;76.85
15260;BME280;34462;51.368;12.364;2022-11-18T13:03:26;18728.72;;;-141.84;76.01
15260;BME280;34462;51.368;12.364;2022-11-18T13:06:06;18751.06;;;-141.84;75.35
15260;BME280;34462;51.368;12.364;2022-11-18T13:08:40;18765.28;;;-141.84;74.91